Time;durP1;ratioP1;P1;durP2;ratioP2;P2;SDS_P1;SDS_P2;PMS_P1;PMS_P2;Temp;Humidity;BMP_temperature;BMP_pressure;BME280_temperature;BME280_humidity;BME280_pressure;Samples;Min_cycle;Max_cycle;Signal;HPM_P1;HPM_P2
2023/07/29 00:01:45;;;;;;;4.47;3.57;;;;;;;;;;5073810;28;20176;-80
2023/07/29 00:04:12;;;;;;;4.57;3.90;;;;;;;;;;5074081;28;20194;-80
2023/07/29 00:06:38;;;;;;;4.07;3.67;;;;;;;;;;5073996;28;20467;-80
2023/07/29 00:09:04;;;;;;;4.47;3.67;;;;;;;;;;5074036;28;20545;-80
2023/07/29 00:11:30;;;;;;;3.70;3.40;;;;;;;;;;5073961;28;20768;-80
2023/07/29 00:13:56;;;;;;;5.50;3.77;;;;;;;;;;5073856;28;20400;-80
2023/07/29 00:16:22;;;;;;;4.27;3.37;;;;;;;;;;5089180;28;20423;-80
2023/07/29 00:18:48;;;;;;;3.97;3.40;;;;;;;;;;5092779;28;20442;-80
2023/07/29 00:21:14;;;;;;;5.10;3.13;;;;;;;;;;5094068;28;20776;-80
2023/07/29 00:23:40;;;;;;;3.57;2.60;;;;;;;;;;5094002;28;20507;-80
2023/07/29 00:26:06;;;;;;;4.30;3.90;;;;;;;;;;5087371;28;20218;-80
2023/07/29 00:28:35;;;;;;;4.13;2.33;;;;;;;;;;5080515;28;20546;-79
2023/07/29 00:31:02;;;;;;;4.63;3.20;;;;;;;;;;5084582;28;20422;-80
2023/07/29 00:33:28;;;;;;;5.13;4.07;;;;;;;;;;5073427;28;20454;-80
2023/07/29 00:35:54;;;;;;;4.67;3.80;;;;;;;;;;5075218;28;20462;-80
2023/07/29 00:38:20;;;;;;;6.17;3.60;;;;;;;;;;5083405;28;20429;-80
2023/07/29 00:40:46;;;;;;;4.47;3.40;;;;;;;;;;5073329;28;20407;-80
2023/07/29 00:43:12;;;;;;;4.03;3.63;;;;;;;;;;5071831;28;20489;-80
2023/07/29 00:45:38;;;;;;;3.67;3.37;;;;;;;;;;5071508;28;20462;-79
2023/07/29 00:48:05;;;;;;;3.70;3.30;;;;;;;;;;5073172;28;20429;-80
2023/07/29 00:50:32;;;;;;;4.87;3.10;;;;;;;;;;5073186;28;20407;-80
2023/07/29 00:52:58;;;;;;;5.33;4.30;;;;;;;;;;5073139;28;20419;-80
2023/07/29 00:55:25;;;;;;;5.80;3.40;;;;;;;;;;5071674;28;20422;-80
2023/07/29 00:57:54;;;;;;;7.37;4.67;;;;;;;;;;5073988;28;20429;-79
2023/07/29 01:00:20;;;;;;;5.17;4.23;;;;;;;;;;5083285;28;20440;-80
2023/07/29 01:02:46;;;;;;;5.90;5.07;;;;;;;;;;5082258;28;20430;-79
2023/07/29 01:05:12;;;;;;;5.87;5.13;;;;;;;;;;5075353;28;21043;-80
2023/07/29 01:07:51;;;;;;;7.97;5.90;;;;;;;;;;5080950;28;21000;-80
2023/07/29 01:10:30;;;;;;;6.00;5.13;;;;;;;;;;5081279;28;20418;-80
2023/07/29 01:13:07;;;;;;;5.30;4.87;;;;;;;;;;5072981;28;20413;-80
2023/07/29 01:15:36;;;;;;;6.37;4.97;;;;;;;;;;5072592;28;20406;-80
2023/07/29 01:18:05;;;;;;;5.70;5.00;;;;;;;;;;5072957;28;20411;-80
2023/07/29 01:20:33;;;;;;;4.97;4.57;;;;;;;;;;5072782;28;20402;-80
2023/07/29 01:22:59;;;;;;;8.60;5.50;;;;;;;;;;5072831;28;20559;-80
2023/07/29 01:25:24;;;;;;;6.67;5.97;;;;;;;;;;5072655;28;20485;-80
2023/07/29 01:27:51;;;;;;;6.30;5.70;;;;;;;;;;5072086;28;20711;-79
2023/07/29 01:30:17;;;;;;;7.33;6.47;;;;;;;;;;5072373;28;20293;-79
2023/07/29 01:32:50;;;;;;;6.63;6.03;;;;;;;;;;5072777;28;20415;-79
2023/07/29 01:35:24;;;;;;;6.00;5.40;;;;;;;;;;5072298;28;20422;-78
2023/07/29 01:37:56;;;;;;;8.50;6.80;;;;;;;;;;5072605;28;20414;-79
2023/07/29 01:40:27;;;;;;;7.03;6.33;;;;;;;;;;5072607;28;20501;-79
2023/07/29 01:42:53;;;;;;;6.33;5.73;;;;;;;;;;5072335;28;20458;-80
2023/07/29 01:45:25;;;;;;;7.17;6.53;;;;;;;;;;5072132;28;20420;-80
2023/07/29 01:47:51;;;;;;;7.30;6.60;;;;;;;;;;5072542;28;20426;-79
2023/07/29 01:50:17;;;;;;;7.30;6.60;;;;;;;;;;5072473;28;20972;-80
2023/07/29 01:52:43;;;;;;;8.73;7.23;;;;;;;;;;5072452;28;20418;-80
2023/07/29 01:55:09;;;;;;;7.83;7.13;;;;;;;;;;5072257;28;20775;-78
2023/07/29 01:57:35;;;;;;;8.13;6.90;;;;;;;;;;5072261;28;20423;-80
2023/07/29 02:00:02;;;;;;;8.43;7.50;;;;;;;;;;5072078;28;20171;-80
2023/07/29 02:02:27;;;;;;;5.70;4.87;;;;;;;;;;5072467;28;20423;-79
2023/07/29 02:04:55;;;;;;;9.50;6.80;;;;;;;;;;5072383;28;20412;-85
2023/07/29 02:07:21;;;;;;;9.03;6.77;;;;;;;;;;5072426;28;20205;-81
2023/07/29 02:09:47;;;;;;;9.97;6.90;;;;;;;;;;5072227;28;20866;-80
2023/07/29 02:12:13;;;;;;;8.20;6.43;;;;;;;;;;5070657;28;20833;-82
2023/07/29 02:14:39;;;;;;;7.00;6.30;;;;;;;;;;5070639;28;20419;-81
2023/07/29 02:17:05;;;;;;;7.73;6.70;;;;;;;;;;5072374;28;20180;-82
2023/07/29 02:19:34;;;;;;;7.80;7.00;;;;;;;;;;5072528;28;20489;-82
2023/07/29 02:22:00;;;;;;;7.93;6.60;;;;;;;;;;5072214;28;20767;-81
2023/07/29 02:24:26;;;;;;;8.57;6.57;;;;;;;;;;5072202;28;20415;-81
2023/07/29 02:26:52;;;;;;;8.03;6.40;;;;;;;;;;5071763;28;20211;-80
2023/07/29 02:29:17;;;;;;;8.13;7.40;;;;;;;;;;5072111;28;20634;-80
2023/07/29 02:31:44;;;;;;;9.53;7.90;;;;;;;;;;5071943;28;20403;-80
2023/07/29 02:34:10;;;;;;;7.63;6.90;;;;;;;;;;5079394;28;20398;-79
2023/07/29 02:36:35;;;;;;;7.70;6.90;;;;;;;;;;5092395;28;20441;-81
2023/07/29 02:39:01;;;;;;;8.70;7.90;;;;;;;;;;5094117;28;20175;-80
2023/07/29 02:41:27;;;;;;;7.73;7.03;;;;;;;;;;5096133;28;20182;-79
2023/07/29 02:43:53;;;;;;;8.33;7.50;;;;;;;;;;5095866;28;20602;-80
2023/07/29 02:46:19;;;;;;;9.37;7.30;;;;;;;;;;5095436;28;20964;-80
2023/07/29 02:48:45;;;;;;;7.97;7.17;;;;;;;;;;5095921;28;20492;-80
2023/07/29 02:51:11;;;;;;;7.37;6.67;;;;;;;;;;5095801;28;20264;-80
2023/07/29 02:53:37;;;;;;;8.07;7.37;;;;;;;;;;5095702;28;20402;-80
2023/07/29 02:56:03;;;;;;;7.03;6.37;;;;;;;;;;5095843;28;20785;-80
2023/07/29 02:58:29;;;;;;;7.30;6.60;;;;;;;;;;5095616;28;20479;-80
2023/07/29 03:01:05;;;;;;;7.50;6.37;;;;;;;;;;5095233;28;20887;-80
2023/07/29 03:03:31;;;;;;;7.77;7.07;;;;;;;;;;5090015;28;20169;-80
2023/07/29 03:06:26;;;;;;;7.20;6.07;;;;;;;;;;5073808;28;20458;-81
2023/07/29 03:08:52;;;;;;;7.43;6.50;;;;;;;;;;5073530;28;20502;-80
2023/07/29 03:11:18;;;;;;;197.63;29.93;;;;;;;;;;5075116;28;20498;-80
2023/07/29 03:13:44;;;;;;;6.73;3.90;;;;;;;;;;5075130;28;20411;-80
2023/07/29 03:16:11;;;;;;;6.47;5.77;;;;;;;;;;5074585;28;20494;-79
2023/07/29 03:18:37;;;;;;;7.10;5.93;;;;;;;;;;5075022;28;20418;-80
2023/07/29 03:21:03;;;;;;;7.93;7.13;;;;;;;;;;5075122;28;20419;-79
2023/07/29 03:23:29;;;;;;;6.30;4.70;;;;;;;;;;5074557;28;20450;-79
2023/07/29 03:26:00;;;;;;;6.90;5.40;;;;;;;;;;5072955;28;20537;-79
2023/07/29 03:28:27;;;;;;;12.20;8.17;;;;;;;;;;5074936;28;20457;-80
2023/07/29 03:30:53;;;;;;;9.40;8.27;;;;;;;;;;5074433;28;20764;-80
2023/07/29 03:33:19;;;;;;;9.33;8.23;;;;;;;;;;5074676;28;20974;-79
2023/07/29 03:35:45;;;;;;;9.00;7.53;;;;;;;;;;5074563;28;20513;-79
2023/07/29 03:38:11;;;;;;;9.20;8.30;;;;;;;;;;5074630;28;20176;-80
2023/07/29 03:40:38;;;;;;;9.80;8.90;;;;;;;;;;5074598;28;20465;-79
2023/07/29 03:43:04;;;;;;;8.30;7.50;;;;;;;;;;5074369;28;20551;-80
2023/07/29 03:45:30;;;;;;;9.63;8.13;;;;;;;;;;5073722;28;20517;-80
2023/07/29 03:47:56;;;;;;;10.27;7.80;;;;;;;;;;5074308;28;20595;-79
2023/07/29 03:50:22;;;;;;;10.30;8.30;;;;;;;;;;5073591;28;20410;-79
2023/07/29 03:52:48;;;;;;;9.40;7.97;;;;;;;;;;5074418;28;20180;-80
2023/07/29 03:55:14;;;;;;;9.43;8.53;;;;;;;;;;5074444;28;20414;-80
2023/07/29 03:57:40;;;;;;;9.37;8.47;;;;;;;;;;5074154;28;20564;-79
2023/07/29 04:00:06;;;;;;;11.00;9.23;;;;;;;;;;5073919;28;20419;-80
2023/07/29 04:02:32;;;;;;;9.40;8.47;;;;;;;;;;5074095;28;20669;-79
2023/07/29 04:04:58;;;;;;;14.00;11.70;;;;;;;;;;5073201;28;20442;-79
2023/07/29 04:07:24;;;;;;;11.67;10.57;;;;;;;;;;5073888;28;20688;-79
2023/07/29 04:09:50;;;;;;;12.50;9.50;;;;;;;;;;5074032;28;20202;-80
2023/07/29 04:12:16;;;;;;;11.33;9.50;;;;;;;;;;5073736;28;20966;-80
2023/07/29 04:14:42;;;;;;;10.03;9.00;;;;;;;;;;5073604;28;20444;-80
2023/07/29 04:17:08;;;;;;;12.50;8.87;;;;;;;;;;5073702;28;20427;-80
2023/07/29 04:19:34;;;;;;;9.47;7.97;;;;;;;;;;5073723;28;20458;-80
2023/07/29 04:22:00;;;;;;;11.13;8.47;;;;;;;;;;5073722;28;20915;-80
2023/07/29 04:24:26;;;;;;;10.63;8.67;;;;;;;;;;5073701;28;20447;-80
2023/07/29 04:26:52;;;;;;;10.13;7.87;;;;;;;;;;5073509;28;20537;-80
2023/07/29 04:29:17;;;;;;;10.40;8.90;;;;;;;;;;5073248;28;20402;-80
2023/07/29 04:31:43;;;;;;;10.30;8.13;;;;;;;;;;5073487;28;20173;-79
2023/07/29 04:34:09;;;;;;;9.47;8.53;;;;;;;;;;5073561;28;20195;-79
2023/07/29 04:36:41;;;;;;;10.77;7.77;;;;;;;;;;5072232;28;20430;-79
2023/07/29 04:39:07;;;;;;;10.90;9.40;;;;;;;;;;5073366;28;20529;-80
2023/07/29 04:41:33;;;;;;;9.80;8.80;;;;;;;;;;5073542;28;20514;-79
2023/07/29 04:43:59;;;;;;;10.70;9.60;;;;;;;;;;5072817;28;20915;-80
2023/07/29 04:46:25;;;;;;;11.90;10.03;;;;;;;;;;5073140;28;20284;-79
2023/07/29 04:48:51;;;;;;;10.70;9.60;;;;;;;;;;5073416;28;20914;-79
2023/07/29 04:51:17;;;;;;;14.00;12.37;;;;;;;;;;5072059;28;20177;-79
2023/07/29 04:53:43;;;;;;;11.87;10.70;;;;;;;;;;5073220;28;20173;-79
2023/07/29 04:56:09;;;;;;;12.83;11.50;;;;;;;;;;5073208;28;20411;-80
2023/07/29 04:58:35;;;;;;;14.80;12.77;;;;;;;;;;5073058;28;20173;-79
2023/07/29 05:01:02;;;;;;;13.40;11.50;;;;;;;;;;5072544;28;20192;-79
2023/07/29 05:03:27;;;;;;;15.27;13.67;;;;;;;;;;5071178;28;21038;-79
2023/07/29 05:05:55;;;;;;;14.10;12.70;;;;;;;;;;5073088;28;20493;-79
2023/07/29 05:08:21;;;;;;;16.90;13.63;;;;;;;;;;5071730;28;20916;-79
2023/07/29 05:10:50;;;;;;;15.67;14.07;;;;;;;;;;5072825;28;20473;-79
2023/07/29 05:13:16;;;;;;;17.80;14.80;;;;;;;;;;5071538;28;20418;-79
2023/07/29 05:15:42;;;;;;;18.13;14.50;;;;;;;;;;5072568;28;20602;-80
2023/07/29 05:18:08;;;;;;;16.63;14.60;;;;;;;;;;5071530;28;20595;-79
2023/07/29 05:20:34;;;;;;;19.63;17.10;;;;;;;;;;5072502;28;20177;-79
2023/07/29 05:23:00;;;;;;;20.63;17.50;;;;;;;;;;5072628;28;20445;-80
2023/07/29 05:25:26;;;;;;;16.10;13.27;;;;;;;;;;5072750;28;20455;-79
2023/07/29 05:27:52;;;;;;;14.13;12.30;;;;;;;;;;5072787;28;20459;-79
2023/07/29 05:30:18;;;;;;;17.47;14.67;;;;;;;;;;5072334;28;20255;-80
2023/07/29 05:32:44;;;;;;;20.70;16.77;;;;;;;;;;5072866;28;20420;-80
2023/07/29 05:35:11;;;;;;;21.73;18.33;;;;;;;;;;5071396;28;20685;-80
2023/07/29 05:37:40;;;;;;;22.50;19.00;;;;;;;;;;5070878;28;20204;-79
2023/07/29 05:40:06;;;;;;;21.00;17.50;;;;;;;;;;5072425;28;20415;-79
2023/07/29 05:42:32;;;;;;;19.93;17.73;;;;;;;;;;5070408;28;20458;-80
2023/07/29 05:44:58;;;;;;;18.70;16.60;;;;;;;;;;5072377;28;20450;-79
2023/07/29 05:47:24;;;;;;;18.00;15.70;;;;;;;;;;5072441;28;20509;-79
2023/07/29 05:49:50;;;;;;;19.43;17.37;;;;;;;;;;5071206;28;20227;-80
2023/07/29 05:52:16;;;;;;;18.57;16.87;;;;;;;;;;5072530;28;20415;-80
2023/07/29 05:54:42;;;;;;;18.73;16.60;;;;;;;;;;5072380;28;20165;-80
2023/07/29 05:57:09;;;;;;;19.13;17.23;;;;;;;;;;5072455;28;20849;-80
2023/07/29 05:59:35;;;;;;;17.37;15.67;;;;;;;;;;5072170;28;20773;-80
2023/07/29 06:02:01;;;;;;;16.60;14.90;;;;;;;;;;5072563;28;20401;-80
2023/07/29 06:04:27;;;;;;;17.67;16.00;;;;;;;;;;5072414;28;20412;-80
2023/07/29 06:06:53;;;;;;;17.13;15.47;;;;;;;;;;5072262;28;20218;-80
2023/07/29 06:09:19;;;;;;;17.57;15.87;;;;;;;;;;5072079;28;20416;-80
2023/07/29 06:11:45;;;;;;;15.13;13.80;;;;;;;;;;5072442;28;20417;-81
2023/07/29 06:14:20;;;;;;;16.80;15.10;;;;;;;;;;5074102;28;20772;-81
2023/07/29 06:16:48;;;;;;;14.93;13.47;;;;;;;;;;5076133;28;20174;-80
2023/07/29 06:19:14;;;;;;;15.27;13.70;;;;;;;;;;5088054;28;20455;-80
2023/07/29 06:21:40;;;;;;;16.13;14.63;;;;;;;;;;5096401;28;20529;-80
2023/07/29 06:24:06;;;;;;;15.27;13.77;;;;;;;;;;5096353;28;20302;-80
2023/07/29 06:26:32;;;;;;;17.27;15.53;;;;;;;;;;5096208;28;20340;-80
2023/07/29 06:28:58;;;;;;;16.87;15.17;;;;;;;;;;5095960;28;20238;-80
2023/07/29 06:31:24;;;;;;;17.83;15.80;;;;;;;;;;5096246;28;20679;-80
2023/07/29 06:33:50;;;;;;;18.33;16.60;;;;;;;;;;5096112;28;20650;-81
2023/07/29 06:36:16;;;;;;;16.50;14.90;;;;;;;;;;5095727;28;20409;-80
2023/07/29 06:38:42;;;;;;;16.57;14.90;;;;;;;;;;5097454;28;20407;-79
2023/07/29 06:41:08;;;;;;;16.23;14.30;;;;;;;;;;5096054;28;20409;-80
2023/07/29 06:43:34;;;;;;;15.23;13.90;;;;;;;;;;5094764;28;20448;-80
2023/07/29 06:46:00;;;;;;;15.33;13.73;;;;;;;;;;5079994;28;20467;-80
2023/07/29 06:48:26;;;;;;;18.13;16.33;;;;;;;;;;5075545;28;20179;-80
2023/07/29 06:50:52;;;;;;;16.50;15.00;;;;;;;;;;5074330;28;20864;-80
2023/07/29 06:53:18;;;;;;;15.00;13.53;;;;;;;;;;5074323;28;20607;-79
2023/07/29 06:55:44;;;;;;;14.37;12.90;;;;;;;;;;5075303;28;20448;-80
2023/07/29 06:58:10;;;;;;;13.30;11.97;;;;;;;;;;5075322;28;20267;-80
2023/07/29 07:00:36;;;;;;;13.03;11.73;;;;;;;;;;5074950;28;20423;-79
2023/07/29 07:03:05;;;;;;;12.60;11.40;;;;;;;;;;5074969;28;20414;-80
2023/07/29 07:05:31;;;;;;;10.70;9.80;;;;;;;;;;5075107;28;20906;-79
2023/07/29 07:07:57;;;;;;;11.60;10.43;;;;;;;;;;5075278;28;20424;-81
2023/07/29 07:10:25;;;;;;;10.90;9.47;;;;;;;;;;5075224;28;20185;-81
2023/07/29 07:12:51;;;;;;;11.10;10.00;;;;;;;;;;5075171;28;20471;-80
2023/07/29 07:15:17;;;;;;;10.90;9.80;;;;;;;;;;5074811;28;20491;-80
2023/07/29 07:17:43;;;;;;;13.10;11.57;;;;;;;;;;5075036;28;20171;-81
2023/07/29 07:20:09;;;;;;;11.57;10.40;;;;;;;;;;5075226;28;20405;-80
2023/07/29 07:22:35;;;;;;;13.90;9.60;;;;;;;;;;5074910;28;20418;-80
2023/07/29 07:25:01;;;;;;;10.60;9.50;;;;;;;;;;5072604;28;20437;-81
2023/07/29 07:27:27;;;;;;;9.50;8.60;;;;;;;;;;5074540;28;20216;-80
2023/07/29 07:29:53;;;;;;;9.57;8.67;;;;;;;;;;5074406;28;20405;-80
2023/07/29 07:32:19;;;;;;;9.93;8.73;;;;;;;;;;5074761;28;20706;-81
2023/07/29 07:34:45;;;;;;;9.53;8.43;;;;;;;;;;5073489;28;20183;-80
2023/07/29 07:37:10;;;;;;;13.30;9.53;;;;;;;;;;5074674;28;20606;-80
2023/07/29 07:39:36;;;;;;;9.87;8.77;;;;;;;;;;5074850;28;20175;-80
2023/07/29 07:42:02;;;;;;;8.63;7.73;;;;;;;;;;5074461;28;20206;-80
2023/07/29 07:44:28;;;;;;;8.13;6.93;;;;;;;;;;5072859;28;20274;-80
2023/07/29 07:46:54;;;;;;;8.90;7.17;;;;;;;;;;5074307;28;20562;-80
2023/07/29 07:49:20;;;;;;;8.20;6.97;;;;;;;;;;5074460;28;20172;-80
2023/07/29 07:51:46;;;;;;;8.90;8.10;;;;;;;;;;5073080;28;20188;-80
2023/07/29 07:54:12;;;;;;;8.40;6.70;;;;;;;;;;5073132;28;20176;-80
2023/07/29 07:56:38;;;;;;;7.70;6.17;;;;;;;;;;5074037;28;20184;-81
2023/07/29 07:59:06;;;;;;;7.53;6.83;;;;;;;;;;5073750;28;20510;-80
2023/07/29 08:01:36;;;;;;;6.40;5.80;;;;;;;;;;5072918;28;20187;-81
2023/07/29 08:04:02;;;;;;;7.10;5.80;;;;;;;;;;5074250;28;20411;-81
2023/07/29 08:06:28;;;;;;;6.53;4.77;;;;;;;;;;5074042;28;20489;-81
2023/07/29 08:08:54;;;;;;;6.07;4.07;;;;;;;;;;5074063;28;20495;-81
2023/07/29 08:11:20;;;;;;;5.27;4.70;;;;;;;;;;5072701;28;20194;-80
2023/07/29 08:13:46;;;;;;;5.70;5.10;;;;;;;;;;5073577;28;20757;-80
2023/07/29 08:16:12;;;;;;;6.90;6.20;;;;;;;;;;5073850;28;20476;-80
2023/07/29 08:18:38;;;;;;;6.97;6.27;;;;;;;;;;5073931;28;20297;-80
2023/07/29 08:21:04;;;;;;;6.20;5.60;;;;;;;;;;5073779;28;20449;-79
2023/07/29 08:23:31;;;;;;;5.83;5.33;;;;;;;;;;5073809;28;20407;-79
2023/07/29 08:26:04;;;;;;;6.90;5.10;;;;;;;;;;5073519;28;20455;-80
2023/07/29 08:28:31;;;;;;;5.43;4.93;;;;;;;;;;5073382;28;20434;-76
2023/07/29 08:30:57;;;;;;;7.67;5.60;;;;;;;;;;5073551;28;20440;-78
2023/07/29 08:33:24;;;;;;;5.30;4.80;;;;;;;;;;5073573;28;20906;-77
2023/07/29 08:35:50;;;;;;;6.20;5.70;;;;;;;;;;5073262;28;20505;-78
2023/07/29 08:38:16;;;;;;;5.80;5.03;;;;;;;;;;5073466;28;20506;-78
2023/07/29 08:40:54;;;;;;;5.80;5.20;;;;;;;;;;5073405;28;20172;-78
2023/07/29 08:43:20;;;;;;;5.50;5.00;;;;;;;;;;5072535;28;20283;-78
2023/07/29 08:45:46;;;;;;;8.00;5.57;;;;;;;;;;5073060;28;20405;-78
2023/07/29 08:48:17;;;;;;;7.97;6.00;;;;;;;;;;5072017;28;20438;-78
2023/07/29 08:50:44;;;;;;;5.33;4.93;;;;;;;;;;5073223;28;20402;-78
2023/07/29 08:53:10;;;;;;;8.30;6.33;;;;;;;;;;5078249;28;20967;-78
2023/07/29 08:55:36;;;;;;;7.23;6.63;;;;;;;;;;5092852;28;20453;-78
2023/07/29 08:58:03;;;;;;;6.80;5.70;;;;;;;;;;5093343;28;20913;-78
2023/07/29 09:00:29;;;;;;;8.03;6.50;;;;;;;;;;5092927;28;20503;-78
2023/07/29 09:02:57;;;;;;;6.13;5.63;;;;;;;;;;5093305;28;20459;-77
2023/07/29 09:05:23;;;;;;;7.77;5.90;;;;;;;;;;5089388;28;20457;-79
2023/07/29 09:07:52;;;;;;;6.20;5.60;;;;;;;;;;5073618;28;20508;-78
2023/07/29 09:10:22;;;;;;;6.43;5.93;;;;;;;;;;5089455;28;20183;-78
2023/07/29 09:12:48;;;;;;;6.07;5.67;;;;;;;;;;5072671;28;20781;-79
2023/07/29 09:15:16;;;;;;;6.13;5.53;;;;;;;;;;5072486;28;20414;-79
2023/07/29 09:17:42;;;;;;;6.30;5.70;;;;;;;;;;5072475;28;20180;-79
2023/07/29 09:20:10;;;;;;;5.30;4.80;;;;;;;;;;5085964;28;20437;-79
2023/07/29 09:22:36;;;;;;;6.90;6.40;;;;;;;;;;5091859;28;20414;-79
2023/07/29 09:25:02;;;;;;;6.43;5.83;;;;;;;;;;5089808;28;20950;-79
2023/07/29 09:27:29;;;;;;;6.30;5.70;;;;;;;;;;5084154;28;20215;-79
2023/07/29 09:29:55;;;;;;;5.97;5.43;;;;;;;;;;5092792;28;20621;-80
2023/07/29 09:32:22;;;;;;;5.37;4.97;;;;;;;;;;5093146;28;20413;-79
2023/07/29 09:34:48;;;;;;;6.50;6.00;;;;;;;;;;5083507;28;20173;-79
2023/07/29 09:37:23;;;;;;;6.03;5.00;;;;;;;;;;5082451;28;20497;-79
2023/07/29 09:39:49;;;;;;;6.73;5.90;;;;;;;;;;5081824;28;20908;-80
2023/07/29 09:42:19;;;;;;;6.37;4.93;;;;;;;;;;5084963;28;20494;-79
2023/07/29 09:44:45;;;;;;;6.93;6.43;;;;;;;;;;5087213;28;20768;-78
2023/07/29 09:47:19;;;;;;;6.70;5.50;;;;;;;;;;5083306;28;20488;-79
2023/07/29 09:49:45;;;;;;;6.33;5.70;;;;;;;;;;5084382;28;20430;-79
2023/07/29 09:52:11;;;;;;;6.37;5.37;;;;;;;;;;5096306;28;20410;-79
2023/07/29 09:54:37;;;;;;;5.83;5.27;;;;;;;;;;5097054;28;20651;-79
2023/07/29 09:57:03;;;;;;;5.50;5.00;;;;;;;;;;5096847;28;20176;-80
2023/07/29 09:59:34;;;;;;;4.53;4.13;;;;;;;;;;5096172;28;20979;-80
2023/07/29 10:02:00;;;;;;;5.00;4.43;;;;;;;;;;5087628;28;20411;-80
2023/07/29 10:04:26;;;;;;;6.20;4.93;;;;;;;;;;5076460;28;20407;-80
2023/07/29 10:06:53;;;;;;;5.50;5.00;;;;;;;;;;5075278;28;20833;-80
2023/07/29 10:09:20;;;;;;;5.73;5.20;;;;;;;;;;5075072;28;20950;-80
2023/07/29 10:11:46;;;;;;;5.03;4.53;;;;;;;;;;5076301;28;20817;-79
2023/07/29 10:14:13;;;;;;;5.20;4.70;;;;;;;;;;5088272;28;20480;-79
2023/07/29 10:16:40;;;;;;;4.87;4.30;;;;;;;;;;5092637;28;20196;-79
2023/07/29 10:19:08;;;;;;;4.43;4.07;;;;;;;;;;5087517;28;20409;-79
2023/07/29 10:21:35;;;;;;;5.67;4.53;;;;;;;;;;5086783;28;20414;-80
2023/07/29 10:24:03;;;;;;;5.00;4.57;;;;;;;;;;5089678;28;20937;-80
2023/07/29 10:26:33;;;;;;;6.33;3.73;;;;;;;;;;5085201;28;20505;-79
2023/07/29 10:29:04;;;;;;;5.23;4.67;;;;;;;;;;5084907;28;20782;-80
2023/07/29 10:31:30;;;;;;;4.40;4.00;;;;;;;;;;5083207;28;20422;-80
2023/07/29 10:33:56;;;;;;;3.90;3.50;;;;;;;;;;5086033;28;20480;-80
2023/07/29 10:36:22;;;;;;;5.43;4.27;;;;;;;;;;5085189;28;20430;-79
2023/07/29 10:38:48;;;;;;;3.37;3.07;;;;;;;;;;5090167;28;20414;-79
2023/07/29 10:41:14;;;;;;;4.57;4.13;;;;;;;;;;5096065;28;20890;-80
2023/07/29 10:43:40;;;;;;;3.20;2.90;;;;;;;;;;5095540;28;20478;-80
2023/07/29 10:46:25;;;;;;;5.30;3.10;;;;;;;;;;5095845;28;20199;-80
2023/07/29 10:48:51;;;;;;;3.50;3.20;;;;;;;;;;5096207;28;20207;-79
2023/07/29 10:51:26;;;;;;;4.03;3.50;;;;;;;;;;5095808;28;20437;-79
2023/07/29 10:53:52;;;;;;;5.77;4.50;;;;;;;;;;5095746;28;20179;-79
2023/07/29 10:56:25;;;;;;;3.20;2.87;;;;;;;;;;5095701;28;20448;-79
2023/07/29 10:58:51;;;;;;;3.50;3.20;;;;;;;;;;5095347;28;20406;-80
2023/07/29 11:01:27;;;;;;;3.40;2.70;;;;;;;;;;5095679;28;20448;-79
2023/07/29 11:04:25;;;;;;;4.07;3.33;;;;;;;;;;5095724;28;20172;-79
2023/07/29 11:07:07;;;;;;;3.07;2.70;;;;;;;;;;5095583;28;20468;-79
2023/07/29 11:09:42;;;;;;;2.13;1.80;;;;;;;;;;5095402;28;20409;-80
2023/07/29 11:12:31;;;;;;;2.73;2.50;;;;;;;;;;5095542;28;20410;-80
2023/07/29 11:14:57;;;;;;;3.03;2.13;;;;;;;;;;5086927;28;20467;-80
2023/07/29 11:17:23;;;;;;;2.50;2.13;;;;;;;;;;5095374;28;20898;-79
2023/07/29 11:19:50;;;;;;;4.10;1.60;;;;;;;;;;5079834;28;20716;-80
2023/07/29 11:22:16;;;;;;;2.33;1.60;;;;;;;;;;5090583;28;20426;-80
2023/07/29 11:24:42;;;;;;;2.37;2.07;;;;;;;;;;5094931;28;20422;-80
2023/07/29 11:27:12;;;;;;;1.87;1.53;;;;;;;;;;5094913;28;20473;-80
2023/07/29 11:29:38;;;;;;;2.67;1.20;;;;;;;;;;5094629;28;20507;-80
2023/07/29 11:32:04;;;;;;;1.50;1.40;;;;;;;;;;5095034;28;20442;-79
2023/07/29 11:34:33;;;;;;;1.40;0.90;;;;;;;;;;5093257;28;20179;-79
2023/07/29 11:36:58;;;;;;;1.70;1.00;;;;;;;;;;5094843;28;20914;-80
2023/07/29 11:39:24;;;;;;;6.40;1.90;;;;;;;;;;5094803;28;20410;-80
2023/07/29 11:41:50;;;;;;;3.33;1.03;;;;;;;;;;5094721;28;20172;-81
2023/07/29 11:44:19;;;;;;;1.80;1.30;;;;;;;;;;5094430;28;20188;-80
2023/07/29 11:46:45;;;;;;;4.83;1.77;;;;;;;;;;5094505;28;20211;-79
2023/07/29 11:49:11;;;;;;;2.23;1.40;;;;;;;;;;5094554;28;20402;-79
2023/07/29 11:51:37;;;;;;;3.13;1.60;;;;;;;;;;5094252;28;20494;-80
2023/07/29 11:54:03;;;;;;;2.00;1.80;;;;;;;;;;5089081;28;20185;-79
2023/07/29 11:56:32;;;;;;;2.03;1.10;;;;;;;;;;5094468;28;20414;-79
2023/07/29 11:58:58;;;;;;;2.60;1.93;;;;;;;;;;5094001;28;20838;-79
2023/07/29 12:01:24;;;;;;;2.43;1.60;;;;;;;;;;5094613;28;20421;-80
2023/07/29 12:03:51;;;;;;;1.37;0.80;;;;;;;;;;5094168;28;20432;-80
2023/07/29 12:06:17;;;;;;;1.83;1.33;;;;;;;;;;5093013;28;20215;-80
2023/07/29 12:08:43;;;;;;;5.03;1.80;;;;;;;;;;5092964;28;20814;-80
2023/07/29 12:11:10;;;;;;;3.77;1.43;;;;;;;;;;5093671;28;20516;-80
2023/07/29 12:13:39;;;;;;;1.77;1.20;;;;;;;;;;5092555;28;20429;-80
2023/07/29 12:16:05;;;;;;;2.03;1.20;;;;;;;;;;5094028;28;20770;-80
2023/07/29 12:18:37;;;;;;;2.90;1.80;;;;;;;;;;5089974;28;20411;-79
2023/07/29 12:21:03;;;;;;;3.03;2.43;;;;;;;;;;5072385;28;20794;-79
2023/07/29 12:23:29;;;;;;;2.73;2.53;;;;;;;;;;5072364;28;20420;-79
2023/07/29 12:25:59;;;;;;;3.73;2.60;;;;;;;;;;5073664;28;20473;-79
2023/07/29 12:28:25;;;;;;;2.40;1.80;;;;;;;;;;5073005;28;20560;-80
2023/07/29 12:30:58;;;;;;;3.13;2.33;;;;;;;;;;5073788;28;20858;-79
2023/07/29 12:33:30;;;;;;;2.00;1.50;;;;;;;;;;5073623;28;20908;-78
2023/07/29 12:35:56;;;;;;;2.30;1.57;;;;;;;;;;5073505;28;20490;-80
2023/07/29 12:38:22;;;;;;;2.23;2.03;;;;;;;;;;5073378;28;20498;-80
2023/07/29 12:40:48;;;;;;;2.00;1.77;;;;;;;;;;5073504;28;20180;-80
2023/07/29 12:43:14;;;;;;;3.10;1.60;;;;;;;;;;5072946;28;20459;-80
2023/07/29 12:45:41;;;;;;;2.50;2.00;;;;;;;;;;5073132;28;20550;-79
2023/07/29 12:48:07;;;;;;;1.60;0.83;;;;;;;;;;5073083;28;20267;-79
2023/07/29 12:50:33;;;;;;;2.70;1.50;;;;;;;;;;5073171;28;20411;-80
2023/07/29 12:52:59;;;;;;;2.47;1.30;;;;;;;;;;5073286;28;20411;-81
2023/07/29 12:55:25;;;;;;;2.50;1.47;;;;;;;;;;5072870;28;20181;-80
2023/07/29 12:57:51;;;;;;;1.07;0.60;;;;;;;;;;5072817;28;20184;-80
2023/07/29 13:00:17;;;;;;;2.40;1.50;;;;;;;;;;5073223;28;20644;-80
2023/07/29 13:02:43;;;;;;;1.70;1.17;;;;;;;;;;5073087;28;20415;-80
2023/07/29 13:05:12;;;;;;;1.50;1.20;;;;;;;;;;5072938;28;20497;-79
2023/07/29 13:07:39;;;;;;;1.80;1.33;;;;;;;;;;5072852;28;20220;-80
2023/07/29 13:10:05;;;;;;;1.80;1.03;;;;;;;;;;5073096;28;20426;-80
2023/07/29 13:12:31;;;;;;;3.60;1.73;;;;;;;;;;5072028;28;20423;-80
2023/07/29 13:14:57;;;;;;;1.03;0.60;;;;;;;;;;5071777;28;20411;-80
2023/07/29 13:17:23;;;;;;;1.63;1.23;;;;;;;;;;5072845;28;20461;-80
2023/07/29 13:19:49;;;;;;;1.93;0.50;;;;;;;;;;5071396;28;20514;-82
2023/07/29 13:22:15;;;;;;;1.50;0.90;;;;;;;;;;5072502;28;20169;-80
2023/07/29 13:24:47;;;;;;;4.00;1.10;;;;;;;;;;5072451;28;20817;-79
2023/07/29 13:27:13;;;;;;;5.10;1.23;;;;;;;;;;5071567;28;20223;-81
2023/07/29 13:29:40;;;;;;;1.00;0.63;;;;;;;;;;5072342;28;20399;-81
2023/07/29 13:32:06;;;;;;;2.03;0.90;;;;;;;;;;5072795;28;20218;-80
2023/07/29 13:34:34;;;;;;;2.37;1.30;;;;;;;;;;5072703;28;20407;-80
2023/07/29 13:36:59;;;;;;;2.50;0.80;;;;;;;;;;5081313;28;20418;-80
2023/07/29 13:39:25;;;;;;;2.97;1.50;;;;;;;;;;5092704;28;20405;-80
2023/07/29 13:41:51;;;;;;;2.17;1.00;;;;;;;;;;5091428;28;20613;-80
2023/07/29 13:44:17;;;;;;;2.13;1.03;;;;;;;;;;5092276;28;20244;-80
2023/07/29 13:46:43;;;;;;;1.40;0.93;;;;;;;;;;5077025;28;20216;-79
2023/07/29 13:49:15;;;;;;;1.40;0.90;;;;;;;;;;5072635;28;20191;-80
2023/07/29 13:51:42;;;;;;;2.67;1.47;;;;;;;;;;5072573;28;20302;-80
2023/07/29 13:54:08;;;;;;;1.83;1.50;;;;;;;;;;5072530;28;20460;-78
2023/07/29 13:56:37;;;;;;;2.43;1.90;;;;;;;;;;5071102;28;20912;-79
2023/07/29 13:59:03;;;;;;;1.83;1.37;;;;;;;;;;5072209;28;20637;-80
2023/07/29 14:01:29;;;;;;;2.63;1.63;;;;;;;;;;5072467;28;20472;-81
2023/07/29 14:03:55;;;;;;;3.30;1.60;;;;;;;;;;5072543;28;20169;-80
2023/07/29 14:06:21;;;;;;;1.87;1.13;;;;;;;;;;5072288;28;20220;-79
2023/07/29 14:08:47;;;;;;;2.03;0.93;;;;;;;;;;5072252;28;20172;-80
2023/07/29 14:11:12;;;;;;;2.00;1.50;;;;;;;;;;5072190;28;20176;-80
2023/07/29 14:13:38;;;;;;;1.50;1.20;;;;;;;;;;5072011;28;20439;-79
2023/07/29 14:16:04;;;;;;;3.90;1.73;;;;;;;;;;5072228;28;20172;-80
2023/07/29 14:18:30;;;;;;;2.43;1.80;;;;;;;;;;5072217;28;20638;-80
2023/07/29 14:20:56;;;;;;;1.93;1.33;;;;;;;;;;5072288;28;20176;-80
2023/07/29 14:23:25;;;;;;;1.83;1.40;;;;;;;;;;5070990;28;20918;-79
2023/07/29 14:25:51;;;;;;;2.00;1.47;;;;;;;;;;5072234;28;20207;-80
2023/07/29 14:28:17;;;;;;;3.03;1.30;;;;;;;;;;5071831;28;20457;-80
2023/07/29 14:30:43;;;;;;;2.73;1.70;;;;;;;;;;5072168;28;20410;-80
2023/07/29 14:33:09;;;;;;;2.10;1.30;;;;;;;;;;5071810;28;20657;-81
2023/07/29 14:35:34;;;;;;;2.60;1.30;;;;;;;;;;5074844;28;20768;-80
2023/07/29 14:38:00;;;;;;;2.33;1.00;;;;;;;;;;5075330;28;20693;-79